Addy, Washington
Current Conditions -  °F | °C
As of 3:53 AM on Tuesday 27 Jan 2015 (Local Time) from KDEW Reporting Station
Moderate Fog Moderate Fog  
Wind Chill: 25°   Ceiling: 100
Heat Index: 25°   Visibility: 0.25mi
Dew Point: 24°   Wind: 0mph
Humidity: 96%   Direction: NA
Pressure: 30"   Gusts: NA
Location:  48.36°N, 117.84°W
Report Text: KDEW 271153Z AUTO 00000KT 1/4SM FZFG VV001 M04/M04 A3000 RMK AO2 SLP176 I1000 I6001 T10391044 10000 21044 57002
Loading
Personal Weather Stations






























Interactive Weather Map New forecast layout! Learn more

10-Day Weather Forecast

Advertisements
Track Severe Weather on mobile